createdAt,value
2023-01-13T00:00:12.735Z,9.4
2023-01-13T00:03:12.228Z,9.4
2023-01-13T00:06:12.284Z,9.4
2023-01-13T00:09:12.281Z,9.3
2023-01-13T00:12:12.287Z,9.3
2023-01-13T00:15:12.280Z,9.3
2023-01-13T00:18:12.272Z,9.1
2023-01-13T00:21:12.322Z,9.1
2023-01-13T00:24:12.247Z,9.1
2023-01-13T00:27:12.286Z,9.1
2023-01-13T00:30:12.433Z,9.3
2023-01-13T00:33:12.309Z,9.3
2023-01-13T00:36:12.264Z,9.3
2023-01-13T00:39:12.324Z,9.3
2023-01-13T00:42:12.294Z,9.3
2023-01-13T00:45:12.266Z,9.3
2023-01-13T00:48:12.395Z,9.3
2023-01-13T00:51:12.445Z,9.3
2023-01-13T00:54:12.234Z,9.4
2023-01-13T00:57:12.304Z,9.4
2023-01-13T01:00:12.367Z,9.4
2023-01-13T01:03:12.355Z,9.3
2023-01-13T01:06:12.318Z,9.1
2023-01-13T01:09:12.438Z,9
2023-01-13T01:12:12.340Z,9
2023-01-13T01:15:12.525Z,9
2023-01-13T01:18:12.281Z,9.1
2023-01-13T01:21:12.304Z,9.1
2023-01-13T01:24:12.373Z,9.4
2023-01-13T01:27:12.283Z,9.4
2023-01-13T01:30:12.288Z,9.4
2023-01-13T01:33:12.278Z,9.4
2023-01-13T01:36:12.314Z,9.4
2023-01-13T01:39:12.273Z,9.4
2023-01-13T01:42:12.334Z,9.5
2023-01-13T01:45:12.343Z,9.5
2023-01-13T01:48:12.244Z,9.5
2023-01-13T01:51:12.298Z,9.5
2023-01-13T01:54:12.404Z,9.5
2023-01-13T01:57:12.400Z,9.5
2023-01-13T02:00:12.417Z,9.5
2023-01-13T02:03:12.665Z,9.4
2023-01-13T02:06:12.283Z,9.4
2023-01-13T02:09:12.395Z,9.5
2023-01-13T02:12:12.228Z,9.5
2023-01-13T02:15:12.246Z,9.5
2023-01-13T02:18:12.387Z,9.5
2023-01-13T02:21:12.259Z,9.5
2023-01-13T02:24:12.572Z,9.4
2023-01-13T02:27:12.714Z,9.4
2023-01-13T02:30:12.306Z,9.4
2023-01-13T02:33:12.243Z,9.4
2023-01-13T02:36:12.280Z,9.4
2023-01-13T02:39:12.332Z,9.3
2023-01-13T02:42:12.309Z,9.3
2023-01-13T02:45:12.402Z,9.3
2023-01-13T02:48:12.314Z,9.3
2023-01-13T02:51:12.353Z,9.1
2023-01-13T02:54:12.251Z,9.1
2023-01-13T02:57:12.265Z,9.1
2023-01-13T03:00:12.004Z,9.1
2023-01-13T03:03:12.123Z,9.1
2023-01-13T03:06:11.895Z,9
2023-01-13T03:09:12.005Z,8.8
2023-01-13T03:12:12.270Z,8.8
2023-01-13T03:15:11.972Z,8.8
2023-01-13T03:18:11.998Z,8.8
2023-01-13T03:21:11.938Z,8.8
2023-01-13T03:24:11.978Z,8.6
2023-01-13T03:27:11.995Z,8.5
2023-01-13T03:30:11.920Z,8.5
2023-01-13T03:33:11.938Z,8.5
2023-01-13T03:36:11.960Z,8.5
2023-01-13T03:39:12.015Z,8.6
2023-01-13T03:42:11.906Z,8.6
2023-01-13T03:45:12.048Z,8.5
2023-01-13T03:48:11.888Z,8.5
2023-01-13T03:51:11.949Z,8.5
2023-01-13T03:54:11.938Z,8.5
2023-01-13T03:57:12.071Z,8.5
2023-01-13T04:00:12.061Z,8.5
2023-01-13T04:03:11.964Z,8.5
2023-01-13T04:06:11.928Z,8.5
2023-01-13T04:09:12.065Z,8.6
2023-01-13T04:12:11.922Z,8.6
2023-01-13T04:15:11.974Z,8.6
2023-01-13T04:18:11.963Z,8.6
2023-01-13T04:21:11.937Z,8.6
2023-01-13T04:24:11.980Z,8.6
2023-01-13T04:27:12.047Z,8.6
2023-01-13T04:30:12.114Z,8.5
2023-01-13T04:33:12.037Z,8.5
2023-01-13T04:36:11.944Z,8.5
2023-01-13T04:39:11.997Z,8.4
2023-01-13T04:42:12.009Z,8.3
2023-01-13T04:45:11.854Z,8.1
2023-01-13T04:48:12.038Z,7.9
2023-01-13T04:51:12.002Z,7.6
2023-01-13T04:54:12.013Z,7.5
2023-01-13T04:57:11.996Z,7.4
2023-01-13T05:00:12.144Z,7.2
2023-01-13T05:03:12.057Z,7.2
2023-01-13T05:06:12.039Z,7.2
2023-01-13T05:09:11.901Z,7.2
2023-01-13T05:12:12.128Z,7.2
2023-01-13T05:15:11.946Z,7.2
2023-01-13T05:18:12.013Z,7.1
2023-01-13T05:21:11.978Z,7
2023-01-13T05:24:11.885Z,6.9
2023-01-13T05:27:12.054Z,6.7
2023-01-13T05:30:11.959Z,6.9
2023-01-13T05:33:11.873Z,6.9
2023-01-13T05:36:12.086Z,6.9
2023-01-13T05:39:11.968Z,7
2023-01-13T05:42:11.947Z,7
2023-01-13T05:45:11.969Z,7
2023-01-13T05:48:11.859Z,6.9
2023-01-13T05:51:12.428Z,6.7
2023-01-13T05:54:12.222Z,6.6
2023-01-13T05:57:11.931Z,6.5
2023-01-13T06:00:12.496Z,6.5
2023-01-13T06:03:12.430Z,6.4
2023-01-13T06:06:11.966Z,6.2
2023-01-13T06:09:11.935Z,6.1
2023-01-13T06:12:12.015Z,6.1
2023-01-13T06:15:11.972Z,6
2023-01-13T06:18:11.951Z,6
2023-01-13T06:21:11.976Z,6
2023-01-13T06:24:12.048Z,6
2023-01-13T06:27:11.971Z,5.9
2023-01-13T06:30:11.938Z,5.9
2023-01-13T06:33:11.950Z,5.9
2023-01-13T06:36:11.902Z,5.9
2023-01-13T06:39:11.934Z,5.9
2023-01-13T06:42:12.112Z,6
2023-01-13T06:45:12.658Z,6
2023-01-13T06:48:11.854Z,6
2023-01-13T06:51:11.900Z,6
2023-01-13T06:54:11.936Z,6
2023-01-13T06:57:12.077Z,6
2023-01-13T07:00:12.103Z,6.1
2023-01-13T07:03:13.948Z,6.1
2023-01-13T07:06:11.956Z,6.1
2023-01-13T07:09:13.611Z,6
2023-01-13T07:12:11.932Z,6
2023-01-13T07:15:11.981Z,6
2023-01-13T07:18:11.966Z,6
2023-01-13T07:21:12.017Z,6.1
2023-01-13T07:24:12.023Z,6.2
2023-01-13T07:27:11.991Z,6.2
2023-01-13T07:30:12.321Z,6.2
2023-01-13T07:33:11.959Z,6.2
2023-01-13T07:36:12.018Z,6.2
2023-01-13T07:39:12.006Z,6.4
2023-01-13T07:42:12.027Z,6.4
2023-01-13T07:45:14.506Z,6.4
2023-01-13T07:48:12.046Z,6.4
2023-01-13T07:51:12.053Z,6.2
2023-01-13T07:54:12.041Z,6.2
2023-01-13T07:57:11.949Z,6.2
2023-01-13T08:00:15.049Z,6.5
2023-01-13T08:03:12.456Z,6.9
2023-01-13T08:06:12.129Z,7.1
2023-01-13T08:09:11.999Z,7.2
2023-01-13T08:12:12.272Z,7.4
2023-01-13T08:15:12.639Z,7.4
2023-01-13T08:18:12.061Z,7.4
2023-01-13T08:21:12.502Z,7.5
2023-01-13T08:24:11.985Z,7.6
2023-01-13T08:27:12.001Z,7.7
2023-01-13T08:30:12.221Z,8.1
2023-01-13T08:33:11.964Z,8.4
2023-01-13T08:36:12.026Z,8.6
2023-01-13T08:39:11.926Z,8.9
2023-01-13T08:42:12.009Z,9.1
2023-01-13T08:45:11.999Z,9.3
2023-01-13T08:48:12.014Z,9.4
2023-01-13T08:51:12.103Z,9.6
2023-01-13T08:54:12.122Z,10
2023-01-13T08:57:12.457Z,10.1
2023-01-13T09:00:12.202Z,9.9
2023-01-13T09:03:11.992Z,9.9
2023-01-13T09:06:12.007Z,9.9
2023-01-13T09:09:11.969Z,10.1
2023-01-13T09:12:12.098Z,12
2023-01-13T09:15:12.056Z,12.4
2023-01-13T09:18:11.914Z,13.5
2023-01-13T09:21:11.941Z,13.6
2023-01-13T09:24:12.011Z,13.3
2023-01-13T09:27:12.141Z,11.9
2023-01-13T09:30:12.245Z,11.4
2023-01-13T09:33:11.942Z,12.9
2023-01-13T09:36:12.078Z,14.5
2023-01-13T09:39:12.067Z,15.6
2023-01-13T09:42:12.056Z,15.4
2023-01-13T09:45:11.992Z,14.5
2023-01-13T09:48:12.033Z,14.3
2023-01-13T09:51:12.467Z,13.5
2023-01-13T09:54:11.966Z,13.4
2023-01-13T09:57:11.957Z,15.3
2023-01-13T10:00:12.214Z,17
2023-01-13T10:03:12.063Z,15
2023-01-13T10:06:12.034Z,15.9
2023-01-13T10:09:11.990Z,17.4
2023-01-13T10:12:11.989Z,17.9
2023-01-13T10:15:11.963Z,19.3
2023-01-13T10:18:12.129Z,18.4
2023-01-13T10:21:11.976Z,20.8
2023-01-13T10:24:12.235Z,22.8
2023-01-13T10:27:11.995Z,23.6
2023-01-13T10:30:12.083Z,24.3
2023-01-13T10:33:12.088Z,25.3
2023-01-13T10:36:12.048Z,25.8
2023-01-13T10:39:12.009Z,24.7
2023-01-13T10:42:12.100Z,24.3
2023-01-13T10:45:11.987Z,20.4
2023-01-13T10:48:11.932Z,18
2023-01-13T10:51:11.924Z,17.1
2023-01-13T10:54:12.029Z,20.8
2023-01-13T10:57:11.976Z,22.4
2023-01-13T11:00:12.105Z,23.4
2023-01-13T11:03:11.992Z,24
2023-01-13T11:06:12.233Z,20.6
2023-01-13T11:09:11.950Z,18.8
2023-01-13T11:12:12.048Z,18.8
2023-01-13T11:15:12.126Z,19.9
2023-01-13T11:18:12.144Z,19.4
2023-01-13T11:21:11.946Z,18.3
2023-01-13T11:24:11.988Z,17
2023-01-13T11:27:12.029Z,16
2023-01-13T11:30:12.392Z,15.9
2023-01-13T11:33:11.971Z,16.5
2023-01-13T11:36:12.214Z,15.6
2023-01-13T11:39:12.004Z,17.9
2023-01-13T11:42:12.094Z,16.3
2023-01-13T11:45:12.130Z,15.5
2023-01-13T11:48:12.163Z,15.6
2023-01-13T11:51:12.276Z,16.5
2023-01-13T11:54:12.053Z,17
2023-01-13T11:57:12.289Z,16.9
2023-01-13T12:00:12.283Z,17
2023-01-13T12:03:12.525Z,18.3
2023-01-13T12:06:12.508Z,18.5
2023-01-13T12:09:12.187Z,16.9
2023-01-13T12:12:12.297Z,16.3
2023-01-13T12:15:12.067Z,15.6
2023-01-13T12:18:12.007Z,15.3
2023-01-13T12:21:11.944Z,14.9
2023-01-13T12:24:12.091Z,14.5
2023-01-13T12:27:12.044Z,14.1
2023-01-13T12:30:12.244Z,14
2023-01-13T12:33:11.957Z,14
2023-01-13T12:36:12.014Z,14
2023-01-13T12:39:12.030Z,13.9
2023-01-13T12:42:11.926Z,13.6
2023-01-13T12:45:12.587Z,13.3
2023-01-13T12:48:12.013Z,13.4
2023-01-13T12:51:12.008Z,13.4
2023-01-13T12:54:12.015Z,13.3
2023-01-13T12:57:11.941Z,13.3
2023-01-13T13:00:12.295Z,13.3
2023-01-13T13:03:12.277Z,13.8
2023-01-13T13:06:12.043Z,14
2023-01-13T13:09:15.459Z,13.6
2023-01-13T13:12:12.242Z,13.1
2023-01-13T13:15:15.452Z,12.9
2023-01-13T13:18:12.065Z,13.1
2023-01-13T13:21:16.002Z,13.1
2023-01-13T13:24:12.130Z,13.3
2023-01-13T13:27:14.834Z,13.4
2023-01-13T13:30:12.212Z,13.6
2023-01-13T13:33:12.003Z,13.3
2023-01-13T13:36:12.040Z,13.5
2023-01-13T13:39:14.455Z,13
2023-01-13T13:42:12.006Z,12.4
2023-01-13T13:45:12.047Z,11.8
2023-01-13T13:48:12.162Z,11.3
2023-01-13T13:51:12.151Z,11.1
2023-01-13T13:54:12.118Z,11
2023-01-13T13:57:12.025Z,11
2023-01-13T14:00:12.197Z,12.2
2023-01-13T14:03:12.002Z,14.3
2023-01-13T14:06:12.001Z,14.1
2023-01-13T14:09:11.909Z,13.1
2023-01-13T14:12:11.961Z,12.5
2023-01-13T14:15:11.933Z,12
2023-01-13T14:18:12.069Z,12
2023-01-13T14:21:11.946Z,12.1
2023-01-13T14:24:12.009Z,11.8
2023-01-13T14:27:11.884Z,11.5
2023-01-13T14:30:12.167Z,11
2023-01-13T14:33:12.009Z,10.6
2023-01-13T14:36:11.934Z,10.4
2023-01-13T14:39:11.929Z,10
2023-01-13T14:42:11.994Z,9.8
2023-01-13T14:45:11.878Z,9.4
2023-01-13T14:48:11.901Z,9.1
2023-01-13T14:51:11.896Z,9
2023-01-13T14:54:12.165Z,8.8
2023-01-13T14:57:11.966Z,8.6
2023-01-13T15:00:11.942Z,8.6
2023-01-13T15:03:12.421Z,8.5
2023-01-13T15:06:11.892Z,8.4
2023-01-13T15:09:11.911Z,8.3
2023-01-13T15:12:11.897Z,8.1
2023-01-13T15:15:12.955Z,8
2023-01-13T15:18:11.948Z,7.9
2023-01-13T15:21:11.944Z,7.7
2023-01-13T15:24:11.925Z,7.7
2023-01-13T15:27:11.834Z,7.7
2023-01-13T15:30:12.073Z,7.6
2023-01-13T15:33:11.789Z,7.5
2023-01-13T15:36:11.847Z,7.5
2023-01-13T15:39:11.888Z,7.5
2023-01-13T15:42:11.842Z,7.5
2023-01-13T15:45:12.169Z,7.5
2023-01-13T15:48:13.107Z,7.5
2023-01-13T15:51:13.704Z,7.5
2023-01-13T15:54:11.821Z,7.6
2023-01-13T15:57:11.822Z,7.5
2023-01-13T16:00:11.954Z,7.6
2023-01-13T16:03:12.164Z,7.5
2023-01-13T16:06:11.848Z,7.4
2023-01-13T16:09:14.586Z,7.4
2023-01-13T16:12:11.865Z,7.2
2023-01-13T16:15:11.858Z,7.1
2023-01-13T16:18:11.882Z,7.1
2023-01-13T16:21:11.858Z,7.1
2023-01-13T16:24:11.891Z,7.1
2023-01-13T16:27:11.870Z,7.4
2023-01-13T16:30:11.888Z,7.4
2023-01-13T16:33:11.870Z,7.5
2023-01-13T16:36:23.615Z,7.5
2023-01-13T16:39:11.951Z,7.4
2023-01-13T16:42:11.952Z,7.4
2023-01-13T16:45:12.895Z,7.2
2023-01-13T16:48:12.063Z,7.2
2023-01-13T16:51:11.943Z,7.2
2023-01-13T16:54:12.186Z,7.1
2023-01-13T16:57:12.109Z,7.1
2023-01-13T17:00:12.271Z,7.1
2023-01-13T17:03:11.968Z,7
2023-01-13T17:06:11.997Z,7.1
2023-01-13T17:09:12.068Z,7.1
2023-01-13T17:12:11.939Z,7.1
2023-01-13T17:15:11.957Z,7.1
2023-01-13T17:18:12.402Z,7.2
2023-01-13T17:21:11.938Z,7.2
2023-01-13T17:24:11.906Z,7
2023-01-13T17:27:11.931Z,6.9
2023-01-13T17:30:12.055Z,6.7
2023-01-13T17:33:11.915Z,6.7
2023-01-13T17:36:12.017Z,6.7
2023-01-13T17:39:11.936Z,6.7
2023-01-13T17:42:12.116Z,6.9
2023-01-13T17:45:12.038Z,7
2023-01-13T17:48:12.182Z,7
2023-01-13T17:51:11.929Z,7.1
2023-01-13T17:54:12.003Z,7.1
2023-01-13T17:57:12.015Z,7
2023-01-13T18:00:11.980Z,7
2023-01-13T18:03:12.182Z,7.1
2023-01-13T18:06:11.967Z,7.4
2023-01-13T18:09:12.020Z,7.4
2023-01-13T18:12:11.890Z,7.5
2023-01-13T18:15:12.019Z,7.6
2023-01-13T18:18:12.255Z,7.6
2023-01-13T18:21:11.983Z,7.6
2023-01-13T18:24:11.948Z,7.6
2023-01-13T18:27:11.938Z,7.7
2023-01-13T18:30:11.989Z,7.7
2023-01-13T18:33:12.019Z,7.6
2023-01-13T18:36:12.035Z,7.4
2023-01-13T18:39:11.995Z,7.2
2023-01-13T18:42:11.919Z,7.1
2023-01-13T18:45:13.344Z,7
2023-01-13T18:48:12.107Z,7
2023-01-13T18:51:11.980Z,6.9
2023-01-13T18:54:11.978Z,6.7
2023-01-13T18:57:11.966Z,6.7
2023-01-13T19:00:12.025Z,6.7
2023-01-13T19:06:11.930Z,6.7
2023-01-13T19:09:11.899Z,6.9
2023-01-13T19:12:12.028Z,7.1
2023-01-13T19:15:11.939Z,7.4
2023-01-13T19:18:11.988Z,7.5
2023-01-13T19:21:11.976Z,7.6
2023-01-13T19:24:11.875Z,7.7
2023-01-13T19:27:11.839Z,7.7
2023-01-13T19:30:14.385Z,7.7
2023-01-13T19:33:11.857Z,7.7
2023-01-13T19:36:11.973Z,7.9
2023-01-13T19:39:11.980Z,7.9
2023-01-13T19:42:11.948Z,7.9
2023-01-13T19:45:11.949Z,7.9
2023-01-13T19:48:12.435Z,7.7
2023-01-13T19:51:11.921Z,7.7
2023-01-13T19:54:12.274Z,7.7
2023-01-13T19:57:11.979Z,7.6
2023-01-13T20:00:12.358Z,7.6
2023-01-13T20:03:12.846Z,7.6
2023-01-13T20:06:11.975Z,7.5
2023-01-13T20:09:12.062Z,7.4
2023-01-13T20:12:12.016Z,7.2
2023-01-13T20:15:12.066Z,7
2023-01-13T20:18:12.013Z,6.7
2023-01-13T20:21:11.974Z,6.6
2023-01-13T20:24:11.904Z,6.6
2023-01-13T20:27:12.010Z,6.7
2023-01-13T20:30:12.063Z,6.7
2023-01-13T20:33:11.922Z,6.7
2023-01-13T20:36:12.010Z,6.9
2023-01-13T20:39:11.986Z,6.9
2023-01-13T20:42:11.991Z,6.9
2023-01-13T20:45:11.946Z,7
2023-01-13T20:48:12.020Z,7.1
2023-01-13T20:51:11.958Z,7.1
2023-01-13T20:54:11.948Z,7.1
2023-01-13T20:57:11.989Z,7.2
2023-01-13T21:00:12.308Z,7.1
2023-01-13T21:03:11.950Z,7.1
2023-01-13T21:06:11.956Z,7.1
2023-01-13T21:09:11.917Z,7
2023-01-13T21:12:11.954Z,7
2023-01-13T21:15:11.966Z,7
2023-01-13T21:18:11.946Z,7.1
2023-01-13T21:21:11.969Z,7.2
2023-01-13T21:24:11.962Z,7.2
2023-01-13T21:27:11.944Z,7.2
2023-01-13T21:30:11.940Z,7.1
2023-01-13T21:33:11.999Z,7.1
2023-01-13T21:36:12.047Z,7.1
2023-01-13T21:39:11.999Z,7.2
2023-01-13T21:42:11.872Z,7.4
2023-01-13T21:45:12.187Z,7.4
2023-01-13T21:48:11.998Z,7.4
2023-01-13T21:51:12.090Z,7.4
2023-01-13T21:54:11.960Z,7.4
2023-01-13T21:57:12.042Z,7.6
2023-01-13T22:00:12.032Z,7.7
2023-01-13T22:03:11.980Z,7.9
2023-01-13T22:06:13.845Z,8
2023-01-13T22:09:12.043Z,8
2023-01-13T22:12:12.343Z,8.1
2023-01-13T22:15:11.953Z,8.1
2023-01-13T22:18:11.870Z,8.1
2023-01-13T22:21:11.964Z,8.1
2023-01-13T22:24:11.983Z,8.1
2023-01-13T22:27:12.043Z,8.1
2023-01-13T22:30:12.060Z,8.1
2023-01-13T22:33:12.037Z,8.1
2023-01-13T22:36:11.940Z,8.1
2023-01-13T22:39:12.300Z,8.1
2023-01-13T22:42:12.136Z,8.1
2023-01-13T22:45:12.016Z,8.1
2023-01-13T22:48:11.969Z,8.1
2023-01-13T22:51:12.075Z,8.1
2023-01-13T22:54:11.916Z,8.1
2023-01-13T22:57:12.604Z,8.1
2023-01-13T23:00:12.958Z,8.1
2023-01-13T23:03:11.953Z,7.9
2023-01-13T23:06:12.055Z,7.6
2023-01-13T23:09:12.063Z,7.5
2023-01-13T23:12:12.058Z,7.5
2023-01-13T23:15:12.009Z,7.4
2023-01-13T23:18:11.936Z,7.2
2023-01-13T23:21:12.034Z,7.2
2023-01-13T23:24:11.932Z,7.1
2023-01-13T23:27:12.074Z,7.1
2023-01-13T23:30:12.015Z,7.1
2023-01-13T23:33:11.983Z,7.2
2023-01-13T23:36:12.037Z,7.2
2023-01-13T23:39:12.067Z,7.1
2023-01-13T23:42:11.971Z,7.1
2023-01-13T23:45:12.045Z,7.1
2023-01-13T23:48:12.258Z,7.1
2023-01-13T23:51:11.978Z,7.1
2023-01-13T23:54:12.041Z,7.1
2023-01-13T23:57:11.994Z,7
